createdAt,value
2023-03-02T00:02:02.287Z,5.38
2023-03-02T00:04:35.952Z,4.18
2023-03-02T00:07:08.543Z,4.78
2023-03-02T00:09:38.363Z,3.75
2023-03-02T00:12:08.010Z,3.90
2023-03-02T00:14:38.046Z,5.15
2023-03-02T00:17:08.063Z,4.00
2023-03-02T00:19:37.697Z,4.20
2023-03-02T00:22:09.026Z,4.63
2023-03-02T00:24:39.303Z,4.80
2023-03-02T00:27:08.658Z,4.28
2023-03-02T00:29:37.945Z,4.40
2023-03-02T00:32:09.035Z,4.95
2023-03-02T00:34:38.310Z,4.43
2023-03-02T00:37:07.549Z,4.88
2023-03-02T00:39:36.835Z,4.15
2023-03-02T00:42:06.265Z,4.40
2023-03-02T00:44:35.540Z,4.43
2023-03-02T00:47:04.949Z,4.30
2023-03-02T00:49:34.922Z,4.68
2023-03-02T00:52:04.176Z,4.85
2023-03-02T00:54:33.815Z,5.20
2023-03-02T00:57:03.377Z,5.07
2023-03-02T00:59:32.691Z,4.80
2023-03-02T01:02:09.302Z,4.47
2023-03-02T01:04:40.780Z,4.70
2023-03-02T01:07:11.550Z,4.63
2023-03-02T01:09:41.673Z,5.03
2023-03-02T01:12:11.400Z,4.93
2023-03-02T01:14:41.846Z,5.28
2023-03-02T01:17:12.481Z,4.10
2023-03-02T01:19:42.139Z,4.78
2023-03-02T01:22:11.519Z,4.47
2023-03-02T01:24:40.827Z,4.93
2023-03-02T01:27:10.116Z,4.38
2023-03-02T01:29:39.588Z,4.07
2023-03-02T01:32:09.100Z,5.60
2023-03-02T01:34:38.421Z,4.82
2023-03-02T01:37:09.083Z,4.95
2023-03-02T01:39:38.475Z,4.68
2023-03-02T01:42:07.832Z,5.47
2023-03-02T01:44:57.353Z,4.63
2023-03-02T01:47:31.416Z,6.10
2023-03-02T01:50:22.403Z,6.03
2023-03-02T01:52:56.564Z,5.57
2023-03-02T01:55:28.309Z,5.78
2023-03-02T01:57:59.272Z,5.53
2023-03-02T02:00:31.538Z,7.05
2023-03-02T02:03:09.479Z,5.68
2023-03-02T02:05:46.598Z,6.22
2023-03-02T02:08:16.426Z,5.65
2023-03-02T02:10:46.186Z,5.65
2023-03-02T02:13:15.545Z,6.05
2023-03-02T02:15:45.227Z,6.32
2023-03-02T02:18:14.614Z,6.43
2023-03-02T02:20:45.891Z,6.18
2023-03-02T02:23:15.908Z,7.63
2023-03-02T02:25:55.504Z,7.53
2023-03-02T02:28:27.892Z,7.38
2023-03-02T02:31:16.798Z,8.88
2023-03-02T02:33:48.549Z,7.57
2023-03-02T02:36:20.837Z,8.95
2023-03-02T02:38:53.089Z,8.45
2023-03-02T02:41:29.071Z,8.23
2023-03-02T02:43:58.996Z,9.02
2023-03-02T02:46:28.895Z,9.23
2023-03-02T02:48:58.824Z,8.68
2023-03-02T02:51:31.533Z,9.15
2023-03-02T02:54:02.101Z,10.07
2023-03-02T02:56:37.218Z,8.90
2023-03-02T02:59:16.507Z,10.70
2023-03-02T03:01:46.197Z,9.10
2023-03-02T03:04:16.945Z,9.45
2023-03-02T03:06:53.916Z,11.70
2023-03-02T03:09:23.779Z,10.05
2023-03-02T03:11:54.638Z,12.85
2023-03-02T03:14:27.539Z,9.80
2023-03-02T03:16:57.593Z,11.68
2023-03-02T03:19:27.387Z,12.07
2023-03-02T03:21:58.588Z,12.18
2023-03-02T03:24:30.406Z,12.93
2023-03-02T03:27:01.094Z,10.82
2023-03-02T03:29:31.330Z,10.43
2023-03-02T03:32:04.004Z,12.77
2023-03-02T03:34:34.101Z,11.40
2023-03-02T03:37:04.343Z,11.60
2023-03-02T03:39:36.769Z,10.73
2023-03-02T03:42:07.528Z,10.68
2023-03-02T03:44:36.891Z,10.80
2023-03-02T03:47:06.370Z,12.10
2023-03-02T03:49:36.068Z,12.52
2023-03-02T03:52:06.408Z,11.00
2023-03-02T03:54:35.748Z,12.65
2023-03-02T03:57:05.340Z,13.25
2023-03-02T03:59:36.073Z,12.27
2023-03-02T04:02:06.504Z,11.82
2023-03-02T04:04:42.567Z,11.50
2023-03-02T04:07:16.500Z,11.85
2023-03-02T04:09:47.025Z,12.88
2023-03-02T04:12:18.027Z,11.73
2023-03-02T04:14:52.666Z,12.23
2023-03-02T04:17:22.148Z,13.20
2023-03-02T04:19:52.696Z,13.40
2023-03-02T04:22:22.706Z,13.60
2023-03-02T04:24:52.448Z,12.20
2023-03-02T04:27:22.691Z,13.27
2023-03-02T04:29:53.157Z,11.88
2023-03-02T04:32:23.104Z,14.95
2023-03-02T04:34:56.926Z,14.65
2023-03-02T04:37:26.753Z,14.75
2023-03-02T04:39:56.207Z,15.35
2023-03-02T04:42:25.469Z,14.70
2023-03-02T04:44:54.792Z,14.60
2023-03-02T04:47:24.221Z,15.10
2023-03-02T04:49:54.815Z,15.60
2023-03-02T04:52:25.132Z,14.38
2023-03-02T04:54:54.531Z,16.65
2023-03-02T04:57:23.877Z,15.70
2023-03-02T04:59:53.157Z,15.25
2023-03-02T05:02:22.510Z,16.08
2023-03-02T05:04:51.909Z,14.63
2023-03-02T05:07:21.266Z,16.35
2023-03-02T05:09:50.574Z,15.23
2023-03-02T05:12:21.760Z,15.75
2023-03-02T05:14:51.168Z,16.40
2023-03-02T05:17:20.437Z,16.35
2023-03-02T05:19:49.709Z,16.77
2023-03-02T05:22:18.957Z,16.60
2023-03-02T05:24:48.214Z,17.25
2023-03-02T05:27:17.464Z,16.92
2023-03-02T05:29:46.711Z,17.92
2023-03-02T05:32:16.056Z,18.92
2023-03-02T05:34:45.384Z,16.85
2023-03-02T05:37:14.686Z,17.17
2023-03-02T05:39:43.968Z,18.20
2023-03-02T05:42:13.297Z,16.13
2023-03-02T05:44:42.680Z,15.00
2023-03-02T05:47:12.277Z,15.77
2023-03-02T05:49:41.677Z,14.52
2023-03-02T05:52:10.905Z,18.40
2023-03-02T05:54:40.143Z,16.50
2023-03-02T05:57:09.426Z,16.63
2023-03-02T05:59:38.760Z,18.15
2023-03-02T06:02:08.131Z,16.88
2023-03-02T06:04:43.245Z,18.60
2023-03-02T06:07:15.919Z,15.60
2023-03-02T06:09:45.194Z,16.58
2023-03-02T06:12:14.480Z,18.13
2023-03-02T06:14:43.795Z,15.77
2023-03-02T06:17:13.192Z,15.98
2023-03-02T06:19:42.440Z,16.30
2023-03-02T06:22:11.719Z,16.05
2023-03-02T06:24:41.032Z,16.63
2023-03-02T06:27:10.439Z,16.60
2023-03-02T06:29:39.726Z,16.70
2023-03-02T06:32:10.498Z,16.95
2023-03-02T06:34:39.884Z,17.23
2023-03-02T06:37:09.220Z,16.02
2023-03-02T06:39:38.468Z,16.88
2023-03-02T06:42:07.810Z,15.60
2023-03-02T06:44:37.075Z,15.73
2023-03-02T06:47:06.403Z,15.45
2023-03-02T06:49:35.711Z,16.88
2023-03-02T06:52:06.755Z,16.58
2023-03-02T06:54:36.567Z,16.73
2023-03-02T06:57:05.966Z,16.10
2023-03-02T06:59:35.386Z,15.73
2023-03-02T07:02:04.800Z,16.40
2023-03-02T07:04:34.120Z,17.40
2023-03-02T07:07:03.610Z,16.60
2023-03-02T07:09:35.003Z,17.85
2023-03-02T07:12:04.294Z,17.02
2023-03-02T07:14:33.668Z,17.33
2023-03-02T07:17:02.948Z,15.65
2023-03-02T07:19:32.614Z,13.93
2023-03-02T07:22:01.888Z,16.70
2023-03-02T07:24:31.230Z,15.82
2023-03-02T07:27:00.564Z,14.15
2023-03-02T07:29:29.826Z,12.98
2023-03-02T07:32:02.069Z,16.15
2023-03-02T07:34:31.448Z,15.27
2023-03-02T07:37:00.750Z,14.32
2023-03-02T07:39:30.044Z,15.20
2023-03-02T07:42:04.452Z,14.80
2023-03-02T07:44:34.143Z,14.57
2023-03-02T07:47:03.603Z,13.88
2023-03-02T07:49:32.879Z,14.32
2023-03-02T07:52:02.148Z,14.52
2023-03-02T07:54:31.508Z,15.85
2023-03-02T07:57:01.265Z,13.68
2023-03-02T07:59:31.275Z,12.95
2023-03-02T08:02:00.790Z,12.00
2023-03-02T08:04:30.129Z,14.13
2023-03-02T08:06:59.373Z,14.65
2023-03-02T08:09:28.684Z,13.70
2023-03-02T08:11:58.018Z,13.38
2023-03-02T08:14:27.320Z,13.63
2023-03-02T08:16:56.611Z,12.77
2023-03-02T08:19:26.466Z,13.82
2023-03-02T08:21:55.788Z,12.63
2023-03-02T08:24:25.082Z,12.57
2023-03-02T08:26:54.515Z,12.15
2023-03-02T08:29:24.686Z,13.30
2023-03-02T08:31:54.242Z,11.63
2023-03-02T08:34:23.657Z,13.18
2023-03-02T08:36:53.014Z,12.90
2023-03-02T08:39:23.591Z,12.63
2023-03-02T08:41:53.898Z,12.13
2023-03-02T08:44:23.695Z,11.77
2023-03-02T08:46:53.721Z,11.88
2023-03-02T08:49:23.048Z,12.75
2023-03-02T08:51:53.767Z,12.27
2023-03-02T08:54:23.623Z,11.43
2023-03-02T08:56:52.870Z,12.10
2023-03-02T08:59:22.167Z,12.02
2023-03-02T09:01:51.448Z,13.15
2023-03-02T09:04:20.814Z,10.45
2023-03-02T09:06:50.193Z,10.75
2023-03-02T09:09:19.487Z,11.75
2023-03-02T09:11:48.790Z,11.45
2023-03-02T09:14:18.102Z,12.77
2023-03-02T09:16:48.090Z,11.43
2023-03-02T09:19:17.349Z,11.70
2023-03-02T09:21:46.608Z,10.77
2023-03-02T09:24:15.840Z,12.02
2023-03-02T09:26:45.152Z,10.90
2023-03-02T09:29:14.409Z,11.40
2023-03-02T09:31:43.698Z,10.85
2023-03-02T09:34:13.051Z,9.98
2023-03-02T09:36:42.308Z,11.38
2023-03-02T09:39:12.577Z,10.05
2023-03-02T09:41:41.921Z,11.13
2023-03-02T09:44:29.976Z,12.20
2023-03-02T09:47:03.134Z,9.82
2023-03-02T09:49:48.038Z,10.02
2023-03-02T09:52:34.432Z,9.15
2023-03-02T09:55:11.623Z,10.05
2023-03-02T09:57:42.141Z,9.23
2023-03-02T10:00:20.289Z,9.93
2023-03-02T10:02:50.071Z,10.63
2023-03-02T10:05:21.334Z,9.98
2023-03-02T10:07:50.789Z,10.25
2023-03-02T10:10:40.180Z,10.52
2023-03-02T10:13:40.724Z,8.73
2023-03-02T10:16:16.588Z,8.52
2023-03-02T10:18:49.075Z,9.68
2023-03-02T10:24:09.690Z,9.13
2023-03-02T10:26:41.942Z,10.88
2023-03-02T10:29:24.034Z,9.40
2023-03-02T10:31:55.774Z,9.32
2023-03-02T10:34:29.864Z,9.68
2023-03-02T10:37:00.274Z,8.27
2023-03-02T10:39:29.547Z,9.82
2023-03-02T10:42:05.078Z,9.80
2023-03-02T10:44:37.624Z,9.70
2023-03-02T10:47:07.647Z,8.73
2023-03-02T10:49:39.418Z,9.57
2023-03-02T10:52:14.855Z,8.73
2023-03-02T10:54:44.361Z,9.10
2023-03-02T10:57:29.996Z,9.15
2023-03-02T11:00:08.179Z,8.60
2023-03-02T11:02:38.916Z,8.68
2023-03-02T11:05:20.556Z,8.90
2023-03-02T11:07:57.305Z,8.88
2023-03-02T11:10:29.171Z,9.55
2023-03-02T11:12:58.605Z,8.10
2023-03-02T11:15:37.174Z,8.80
2023-03-02T11:18:09.545Z,8.20
2023-03-02T11:20:41.439Z,8.77
2023-03-02T11:23:15.960Z,7.63
2023-03-02T11:25:51.180Z,7.93
2023-03-02T11:28:32.931Z,7.70
2023-03-02T11:31:03.559Z,8.23
2023-03-02T11:33:37.270Z,7.80
2023-03-02T11:36:18.780Z,9.27
2023-03-02T11:38:54.048Z,7.68
2023-03-02T11:41:34.232Z,8.98
2023-03-02T11:44:04.823Z,8.18
2023-03-02T11:46:35.293Z,9.65
2023-03-02T11:49:09.290Z,8.43
2023-03-02T11:51:47.141Z,8.93
2023-03-02T11:54:37.880Z,8.73
2023-03-02T11:57:07.467Z,7.90
2023-03-02T11:59:37.421Z,7.80
2023-03-02T12:02:06.927Z,8.60
2023-03-02T12:04:37.575Z,7.82
2023-03-02T12:07:22.975Z,7.72
2023-03-02T12:10:00.364Z,6.70
2023-03-02T12:12:29.594Z,6.85
2023-03-02T12:14:58.961Z,6.45
2023-03-02T12:17:28.283Z,7.45
2023-03-02T12:20:09.938Z,7.53
2023-03-02T12:22:41.339Z,8.15
2023-03-02T12:25:10.919Z,8.47
2023-03-02T12:27:42.309Z,8.95
2023-03-02T12:30:26.821Z,7.75
2023-03-02T12:33:04.875Z,8.13
2023-03-02T12:35:35.781Z,7.63
2023-03-02T12:38:09.410Z,8.18
2023-03-02T12:40:41.811Z,7.38
2023-03-02T12:43:11.110Z,7.47
2023-03-02T12:45:40.463Z,6.88
2023-03-02T12:48:42.862Z,8.13
2023-03-02T12:51:24.092Z,7.93
2023-03-02T12:54:04.505Z,7.70
2023-03-02T12:56:34.188Z,8.20
2023-03-02T12:59:03.739Z,7.60
2023-03-02T13:01:34.595Z,7.38
2023-03-02T13:04:03.972Z,8.85
2023-03-02T13:06:34.658Z,7.25
2023-03-02T13:09:04.138Z,8.57
2023-03-02T13:11:35.067Z,7.68
2023-03-02T13:14:05.679Z,7.97
2023-03-02T13:16:37.590Z,6.97
2023-03-02T13:19:12.324Z,7.28
2023-03-02T13:21:42.018Z,6.30
2023-03-02T13:24:23.422Z,6.70
2023-03-02T13:26:58.139Z,6.30
2023-03-02T13:29:31.896Z,5.95
2023-03-02T13:32:13.441Z,7.15
2023-03-02T13:34:59.047Z,6.80
2023-03-02T13:37:40.669Z,6.38
2023-03-02T13:40:30.225Z,6.20
2023-03-02T13:42:59.673Z,6.82
2023-03-02T13:45:28.998Z,6.80
2023-03-02T13:47:59.287Z,6.38
2023-03-02T13:50:29.866Z,5.72
2023-03-02T13:53:00.642Z,7.82
2023-03-02T13:55:30.106Z,7.78
2023-03-02T13:58:00.003Z,7.40
2023-03-02T14:00:31.557Z,6.88
2023-03-02T14:03:01.219Z,6.63
2023-03-02T14:05:33.359Z,6.45
2023-03-02T14:08:03.238Z,6.95
2023-03-02T14:10:32.591Z,6.80
2023-03-02T14:13:07.444Z,6.97
2023-03-02T14:15:37.745Z,7.47
2023-03-02T14:18:11.903Z,6.35
2023-03-02T14:20:41.183Z,6.25
2023-03-02T14:23:11.348Z,6.28
2023-03-02T14:25:40.949Z,6.10
2023-03-02T14:28:12.974Z,7.10
2023-03-02T14:30:44.964Z,6.90
2023-03-02T14:33:18.692Z,7.28
2023-03-02T14:35:48.172Z,6.40
2023-03-02T14:38:17.616Z,6.57
2023-03-02T14:40:48.495Z,6.43
2023-03-02T14:43:18.608Z,5.93
2023-03-02T14:45:48.274Z,6.22
2023-03-02T14:48:17.662Z,6.28
2023-03-02T14:50:49.007Z,7.18
2023-03-02T14:53:23.330Z,6.03
2023-03-02T14:55:52.638Z,6.75
2023-03-02T14:58:26.884Z,6.07
2023-03-02T15:00:56.178Z,6.65
2023-03-02T15:03:25.761Z,6.75
2023-03-02T15:06:01.284Z,7.53
2023-03-02T15:08:31.617Z,7.15
2023-03-02T15:11:00.959Z,7.28
2023-03-02T15:13:30.223Z,6.40
2023-03-02T15:15:59.662Z,6.55
2023-03-02T15:18:29.005Z,5.85
2023-03-02T15:20:58.285Z,6.80
2023-03-02T15:23:27.647Z,7.00
2023-03-02T15:26:01.189Z,7.28
2023-03-02T15:28:30.603Z,6.55
2023-03-02T15:31:00.062Z,6.60
2023-03-02T15:33:29.521Z,7.28
2023-03-02T15:36:00.133Z,6.32
2023-03-02T15:38:29.769Z,6.25
2023-03-02T15:40:59.054Z,5.72
2023-03-02T15:43:28.346Z,6.45
2023-03-02T15:45:57.750Z,6.22
2023-03-02T15:48:27.127Z,6.85
2023-03-02T15:51:00.664Z,7.18
2023-03-02T15:53:30.820Z,6.78
2023-03-02T15:56:00.117Z,5.57
2023-03-02T15:58:29.384Z,6.55
2023-03-02T16:00:59.042Z,5.40
2023-03-02T16:03:28.736Z,5.82
2023-03-02T16:06:00.508Z,6.15
2023-03-02T16:08:30.139Z,5.50
2023-03-02T16:11:00.730Z,5.82
2023-03-02T16:13:30.532Z,5.22
2023-03-02T16:15:59.945Z,5.53
2023-03-02T16:18:29.249Z,6.68
2023-03-02T16:20:58.530Z,5.75
2023-03-02T16:23:27.781Z,5.43
2023-03-02T16:25:57.075Z,5.70
2023-03-02T16:28:26.409Z,5.35
2023-03-02T16:31:05.146Z,5.82
2023-03-02T16:33:34.511Z,5.30
2023-03-02T16:36:03.806Z,4.90
2023-03-02T16:38:33.510Z,6.15
2023-03-02T16:41:02.979Z,5.63
2023-03-02T16:43:35.028Z,5.22
2023-03-02T16:46:04.334Z,5.68
2023-03-02T16:48:33.684Z,5.45
2023-03-02T16:51:03.394Z,5.18
2023-03-02T16:53:32.779Z,4.88
2023-03-02T16:56:02.088Z,5.72
2023-03-02T16:58:31.616Z,5.25
2023-03-02T17:01:01.065Z,5.80
2023-03-02T17:03:30.385Z,5.15
2023-03-02T17:05:59.611Z,5.45
2023-03-02T17:08:28.974Z,4.95
2023-03-02T17:10:58.395Z,6.78
2023-03-02T17:13:27.678Z,6.00
2023-03-02T17:15:57.472Z,5.93
2023-03-02T17:18:27.639Z,5.85
2023-03-02T17:20:58.398Z,7.03
2023-03-02T17:23:28.073Z,6.75
2023-03-02T17:25:57.674Z,6.35
2023-03-02T17:28:26.996Z,5.93
2023-03-02T17:30:56.331Z,7.32
2023-03-02T17:33:25.834Z,7.97
2023-03-02T17:35:55.189Z,8.07
2023-03-02T17:38:24.695Z,8.40
2023-03-02T17:40:53.960Z,8.40
2023-03-02T17:43:23.436Z,9.38
2023-03-02T17:45:52.723Z,9.10
2023-03-02T17:48:22.065Z,9.20
2023-03-02T17:50:51.326Z,9.90
2023-03-02T17:53:20.617Z,9.88
2023-03-02T17:55:49.921Z,9.23
2023-03-02T17:58:19.473Z,10.07
2023-03-02T18:00:48.850Z,9.90
2023-03-02T18:03:19.755Z,10.38
2023-03-02T18:05:49.119Z,11.07
2023-03-02T18:08:18.499Z,10.93
2023-03-02T18:10:47.862Z,9.77
2023-03-02T18:13:17.356Z,9.85
2023-03-02T18:15:46.941Z,10.32
2023-03-02T18:18:16.268Z,8.85
2023-03-02T18:20:45.599Z,9.52
2023-03-02T18:23:15.465Z,11.00
2023-03-02T18:25:45.460Z,10.40
2023-03-02T18:28:14.754Z,10.35
2023-03-02T18:30:44.347Z,10.43
2023-03-02T18:33:13.792Z,9.88
2023-03-02T18:35:43.192Z,9.90
2023-03-02T18:38:12.448Z,10.18
2023-03-02T18:40:41.828Z,11.23
2023-03-02T18:43:11.220Z,10.70
2023-03-02T18:45:41.627Z,9.85
2023-03-02T18:48:11.431Z,13.07
2023-03-02T18:50:40.750Z,11.18
2023-03-02T18:53:12.810Z,11.20
2023-03-02T18:55:42.996Z,12.48
2023-03-02T18:58:19.007Z,12.02
2023-03-02T19:00:48.586Z,10.25
2023-03-02T19:03:19.385Z,10.93
2023-03-02T19:05:48.713Z,13.15
2023-03-02T19:08:18.041Z,11.63
2023-03-02T19:10:47.466Z,12.80
2023-03-02T19:13:16.762Z,13.43
2023-03-02T19:15:46.443Z,11.68
2023-03-02T19:18:19.318Z,12.93
2023-03-02T19:20:49.083Z,14.23
2023-03-02T19:23:19.292Z,12.75
2023-03-02T19:25:48.905Z,12.68
2023-03-02T19:28:18.406Z,14.57
2023-03-02T19:30:47.680Z,12.75
2023-03-02T19:33:16.998Z,13.07
2023-03-02T19:35:46.832Z,13.98
2023-03-02T19:38:16.150Z,13.25
2023-03-02T19:40:45.433Z,12.73
2023-03-02T19:43:14.718Z,13.50
2023-03-02T19:45:44.216Z,12.55
2023-03-02T19:48:13.663Z,12.82
2023-03-02T19:50:43.417Z,15.38
2023-03-02T19:53:12.711Z,13.30
2023-03-02T19:55:42.617Z,15.05
2023-03-02T19:58:17.206Z,14.82
2023-03-02T20:00:47.672Z,12.63
2023-03-02T20:03:17.185Z,13.43
2023-03-02T20:05:46.427Z,14.88
2023-03-02T20:08:16.856Z,14.00
2023-03-02T20:10:49.500Z,14.52
2023-03-02T20:13:19.475Z,14.07
2023-03-02T20:15:49.581Z,14.23
2023-03-02T20:18:20.560Z,13.80
2023-03-02T20:20:49.805Z,16.20
2023-03-02T20:23:19.545Z,13.52
2023-03-02T20:25:48.897Z,13.93
2023-03-02T20:28:19.440Z,13.95
2023-03-02T20:30:51.472Z,15.00
2023-03-02T20:33:21.385Z,17.25
2023-03-02T20:35:51.151Z,12.80
2023-03-02T20:38:29.525Z,13.80
2023-03-02T20:40:59.156Z,13.85
2023-03-02T20:43:28.589Z,14.93
2023-03-02T20:45:57.840Z,14.65
2023-03-02T20:48:27.615Z,13.65
2023-03-02T20:50:56.924Z,14.85
2023-03-02T20:53:26.320Z,12.63
2023-03-02T20:55:55.772Z,13.48
2023-03-02T20:58:25.133Z,14.00
2023-03-02T21:00:55.907Z,14.60
2023-03-02T21:03:25.565Z,15.50
2023-03-02T21:05:54.933Z,14.75
2023-03-02T21:08:24.351Z,14.10
2023-03-02T21:10:53.779Z,14.77
2023-03-02T21:13:23.186Z,12.95
2023-03-02T21:15:52.819Z,11.60
2023-03-02T21:18:22.176Z,12.30
2023-03-02T21:20:51.510Z,13.70
2023-03-02T21:23:20.795Z,13.32
2023-03-02T21:25:50.386Z,14.00
2023-03-02T21:28:19.752Z,13.98
2023-03-02T21:30:49.290Z,13.98
2023-03-02T21:33:18.719Z,12.40
2023-03-02T21:35:48.774Z,13.38
2023-03-02T21:38:18.097Z,14.18
2023-03-02T21:40:48.538Z,13.32
2023-03-02T21:43:18.473Z,12.75
2023-03-02T21:45:47.795Z,12.98
2023-03-02T21:48:17.822Z,13.40
2023-03-02T21:50:47.107Z,13.43
2023-03-02T21:53:17.152Z,13.68
2023-03-02T21:55:47.855Z,12.40
2023-03-02T21:58:17.239Z,13.70
2023-03-02T22:00:46.668Z,14.40
2023-03-02T22:03:16.654Z,14.68
2023-03-02T22:05:49.265Z,14.43
2023-03-02T22:08:22.355Z,14.02
2023-03-02T22:10:52.833Z,14.15
2023-03-02T22:13:24.880Z,13.77
2023-03-02T22:15:59.454Z,12.18
2023-03-02T22:18:29.183Z,13.35
2023-03-02T22:20:58.455Z,14.82
2023-03-02T22:23:29.218Z,14.10
2023-03-02T22:26:03.698Z,13.27
2023-03-02T22:28:34.196Z,15.68
2023-03-02T22:31:06.167Z,14.95
2023-03-02T22:33:36.695Z,12.75
2023-03-02T22:36:13.992Z,12.35
2023-03-02T22:38:43.415Z,14.43
2023-03-02T22:41:16.457Z,16.48
2023-03-02T22:43:45.760Z,14.60
2023-03-02T22:46:20.254Z,18.02
2023-03-02T22:48:50.832Z,15.10
2023-03-02T22:51:20.210Z,16.25
2023-03-02T22:53:51.773Z,15.35
2023-03-02T22:56:30.431Z,15.35
2023-03-02T22:59:02.772Z,16.92
2023-03-02T23:01:42.687Z,14.55
2023-03-02T23:04:11.972Z,15.13
2023-03-02T23:06:45.355Z,14.07
2023-03-02T23:09:20.969Z,13.88
2023-03-02T23:11:50.978Z,15.68
2023-03-02T23:14:30.807Z,15.07
2023-03-02T23:17:01.522Z,16.17
2023-03-02T23:19:32.055Z,14.60
2023-03-02T23:22:04.384Z,14.82
2023-03-02T23:24:33.705Z,15.93
2023-03-02T23:27:02.986Z,16.88
2023-03-02T23:29:33.472Z,17.33
2023-03-02T23:32:02.882Z,14.90
2023-03-02T23:34:32.526Z,14.85
2023-03-02T23:37:02.298Z,14.98
2023-03-02T23:39:31.603Z,16.00
2023-03-02T23:42:00.929Z,18.08
2023-03-02T23:44:30.373Z,17.42
2023-03-02T23:46:59.649Z,15.95
2023-03-02T23:49:28.959Z,15.85
2023-03-02T23:51:58.698Z,15.90
2023-03-02T23:54:28.102Z,16.10
2023-03-02T23:56:57.383Z,15.15
2023-03-02T23:59:26.641Z,15.57
